sensor_id;sensor_type;location;lat;lon;timestamp;temperature;humidity
15217;DHT22;7711;46.634;14.318;2024-03-08T00:01:00;2.00;99.90
15217;DHT22;7711;46.634;14.318;2024-03-08T00:03:27;2.00;99.90
15217;DHT22;7711;46.634;14.318;2024-03-08T00:05:54;2.10;99.90
15217;DHT22;7711;46.634;14.318;2024-03-08T00:08:22;2.10;99.90
15217;DHT22;7711;46.634;14.318;2024-03-08T00:10:50;2.10;99.90
15217;DHT22;7711;46.634;14.318;2024-03-08T00:13:17;2.10;99.90
15217;DHT22;7711;46.634;14.318;2024-03-08T00:15:44;2.10;99.90
15217;DHT22;7711;46.634;14.318;2024-03-08T00:18:11;2.00;99.90
15217;DHT22;7711;46.634;14.318;2024-03-08T00:20:38;2.00;99.90
15217;DHT22;7711;46.634;14.318;2024-03-08T00:23:05;2.10;99.90
15217;DHT22;7711;46.634;14.318;2024-03-08T00:25:32;2.00;99.90
15217;DHT22;7711;46.634;14.318;2024-03-08T00:28:00;2.10;99.90
15217;DHT22;7711;46.634;14.318;2024-03-08T00:30:27;2.10;99.90
15217;DHT22;7711;46.634;14.318;2024-03-08T00:32:54;2.20;99.90
15217;DHT22;7711;46.634;14.318;2024-03-08T00:35:21;2.20;99.90
15217;DHT22;7711;46.634;14.318;2024-03-08T00:37:48;2.30;99.90
15217;DHT22;7711;46.634;14.318;2024-03-08T00:40:16;2.30;99.90
15217;DHT22;7711;46.634;14.318;2024-03-08T00:42:43;2.30;99.90
15217;DHT22;7711;46.634;14.318;2024-03-08T00:45:11;2.30;99.90
15217;DHT22;7711;46.634;14.318;2024-03-08T00:47:39;2.30;99.90
15217;DHT22;7711;46.634;14.318;2024-03-08T00:50:08;2.30;99.90
15217;DHT22;7711;46.634;14.318;2024-03-08T00:52:35;2.30;99.90
15217;DHT22;7711;46.634;14.318;2024-03-08T00:55:02;2.30;99.90
15217;DHT22;7711;46.634;14.318;2024-03-08T00:57:29;2.20;99.90
15217;DHT22;7711;46.634;14.318;2024-03-08T00:59:56;1.70;99.90
15217;DHT22;7711;46.634;14.318;2024-03-08T01:02:25;2.10;99.90
15217;DHT22;7711;46.634;14.318;2024-03-08T01:04:51;2.20;99.90
15217;DHT22;7711;46.634;14.318;2024-03-08T01:07:18;2.10;99.90
15217;DHT22;7711;46.634;14.318;2024-03-08T01:09:45;2.20;99.90
15217;DHT22;7711;46.634;14.318;2024-03-08T01:12:12;2.20;99.90
15217;DHT22;7711;46.634;14.318;2024-03-08T01:14:40;2.20;99.90
15217;DHT22;7711;46.634;14.318;2024-03-08T01:17:07;2.20;99.90
15217;DHT22;7711;46.634;14.318;2024-03-08T01:19:36;2.10;99.90
15217;DHT22;7711;46.634;14.318;2024-03-08T01:22:03;2.20;99.90
15217;DHT22;7711;46.634;14.318;2024-03-08T01:24:30;2.20;99.90
15217;DHT22;7711;46.634;14.318;2024-03-08T01:26:57;2.10;99.90
15217;DHT22;7711;46.634;14.318;2024-03-08T01:29:24;2.10;99.90
15217;DHT22;7711;46.634;14.318;2024-03-08T01:31:50;2.10;99.90
15217;DHT22;7711;46.634;14.318;2024-03-08T01:34:18;2.10;99.90
15217;DHT22;7711;46.634;14.318;2024-03-08T01:36:46;2.10;99.90
15217;DHT22;7711;46.634;14.318;2024-03-08T01:39:13;2.10;99.90
15217;DHT22;7711;46.634;14.318;2024-03-08T01:41:40;2.00;99.90
15217;DHT22;7711;46.634;14.318;2024-03-08T01:44:07;2.00;99.90
15217;DHT22;7711;46.634;14.318;2024-03-08T01:46:35;1.90;99.90
15217;DHT22;7711;46.634;14.318;2024-03-08T01:49:02;1.90;99.90
15217;DHT22;7711;46.634;14.318;2024-03-08T01:51:30;2.00;99.90
15217;DHT22;7711;46.634;14.318;2024-03-08T01:54:01;2.10;99.90
15217;DHT22;7711;46.634;14.318;2024-03-08T01:56:29;2.10;99.90
15217;DHT22;7711;46.634;14.318;2024-03-08T01:58:58;2.10;99.90
15217;DHT22;7711;46.634;14.318;2024-03-08T02:01:26;2.00;99.90
15217;DHT22;7711;46.634;14.318;2024-03-08T02:03:54;1.90;99.90
15217;DHT22;7711;46.634;14.318;2024-03-08T02:06:21;1.90;99.90
15217;DHT22;7711;46.634;14.318;2024-03-08T02:08:48;2.00;99.90
15217;DHT22;7711;46.634;14.318;2024-03-08T02:11:16;1.90;99.90
15217;DHT22;7711;46.634;14.318;2024-03-08T02:13:44;1.90;99.90
15217;DHT22;7711;46.634;14.318;2024-03-08T02:16:11;1.80;99.90
15217;DHT22;7711;46.634;14.318;2024-03-08T02:18:38;1.90;99.90
15217;DHT22;7711;46.634;14.318;2024-03-08T02:21:06;1.90;99.90
15217;DHT22;7711;46.634;14.318;2024-03-08T02:23:34;1.90;99.90
15217;DHT22;7711;46.634;14.318;2024-03-08T02:26:01;1.90;99.90
15217;DHT22;7711;46.634;14.318;2024-03-08T02:28:30;1.90;99.90
15217;DHT22;7711;46.634;14.318;2024-03-08T02:30:57;1.80;99.90
15217;DHT22;7711;46.634;14.318;2024-03-08T02:33:25;1.70;99.90
15217;DHT22;7711;46.634;14.318;2024-03-08T02:35:52;1.80;99.90
15217;DHT22;7711;46.634;14.318;2024-03-08T02:38:21;1.70;99.90
15217;DHT22;7711;46.634;14.318;2024-03-08T02:40:50;1.80;99.90
15217;DHT22;7711;46.634;14.318;2024-03-08T02:43:19;1.80;99.90
15217;DHT22;7711;46.634;14.318;2024-03-08T02:45:47;1.80;99.90
15217;DHT22;7711;46.634;14.318;2024-03-08T02:48:15;1.80;99.90
15217;DHT22;7711;46.634;14.318;2024-03-08T02:50:42;1.80;99.90
15217;DHT22;7711;46.634;14.318;2024-03-08T02:53:10;1.80;99.90
15217;DHT22;7711;46.634;14.318;2024-03-08T02:55:39;1.90;99.90
15217;DHT22;7711;46.634;14.318;2024-03-08T02:58:06;1.80;99.90
15217;DHT22;7711;46.634;14.318;2024-03-08T03:00:35;1.80;99.90
15217;DHT22;7711;46.634;14.318;2024-03-08T03:03:03;1.80;99.90
15217;DHT22;7711;46.634;14.318;2024-03-08T03:05:30;1.80;99.90
15217;DHT22;7711;46.634;14.318;2024-03-08T03:07:57;1.80;99.90
15217;DHT22;7711;46.634;14.318;2024-03-08T03:10:24;1.90;99.90
15217;DHT22;7711;46.634;14.318;2024-03-08T03:12:52;1.90;99.90
15217;DHT22;7711;46.634;14.318;2024-03-08T03:15:19;1.90;99.90
15217;DHT22;7711;46.634;14.318;2024-03-08T03:17:47;1.90;99.90
15217;DHT22;7711;46.634;14.318;2024-03-08T03:20:14;1.90;99.90
15217;DHT22;7711;46.634;14.318;2024-03-08T03:22:48;1.80;99.90
15217;DHT22;7711;46.634;14.318;2024-03-08T03:25:18;1.80;99.90
15217;DHT22;7711;46.634;14.318;2024-03-08T03:27:52;1.70;99.90
15217;DHT22;7711;46.634;14.318;2024-03-08T03:30:22;1.80;99.90
15217;DHT22;7711;46.634;14.318;2024-03-08T03:32:49;1.80;99.90
15217;DHT22;7711;46.634;14.318;2024-03-08T03:35:16;1.80;99.90
15217;DHT22;7711;46.634;14.318;2024-03-08T03:37:44;1.80;99.90
15217;DHT22;7711;46.634;14.318;2024-03-08T03:40:27;1.80;1.00
15217;DHT22;7711;46.634;14.318;2024-03-08T03:42:55;1.80;1.00
15217;DHT22;7711;46.634;14.318;2024-03-08T03:45:22;1.90;99.90
15217;DHT22;7711;46.634;14.318;2024-03-08T03:47:49;1.80;99.90
15217;DHT22;7711;46.634;14.318;2024-03-08T03:50:17;1.80;99.90
15217;DHT22;7711;46.634;14.318;2024-03-08T03:52:45;1.80;99.90
15217;DHT22;7711;46.634;14.318;2024-03-08T03:55:12;1.70;1.00
15217;DHT22;7711;46.634;14.318;2024-03-08T03:57:39;1.80;1.00
15217;DHT22;7711;46.634;14.318;2024-03-08T04:00:08;1.80;1.00
15217;DHT22;7711;46.634;14.318;2024-03-08T04:02:37;1.90;1.00
15217;DHT22;7711;46.634;14.318;2024-03-08T04:05:04;2.00;1.00
15217;DHT22;7711;46.634;14.318;2024-03-08T04:07:32;1.90;1.00
15217;DHT22;7711;46.634;14.318;2024-03-08T04:09:58;2.00;1.00
15217;DHT22;7711;46.634;14.318;2024-03-08T04:12:24;2.00;99.90
15217;DHT22;7711;46.634;14.318;2024-03-08T04:14:52;2.00;99.90
15217;DHT22;7711;46.634;14.318;2024-03-08T04:17:20;1.90;99.90
15217;DHT22;7711;46.634;14.318;2024-03-08T04:19:47;1.90;99.90
15217;DHT22;7711;46.634;14.318;2024-03-08T04:22:14;1.90;99.90
15217;DHT22;7711;46.634;14.318;2024-03-08T04:24:43;1.90;99.90
15217;DHT22;7711;46.634;14.318;2024-03-08T04:27:10;1.90;99.90
15217;DHT22;7711;46.634;14.318;2024-03-08T04:29:37;1.80;99.90
15217;DHT22;7711;46.634;14.318;2024-03-08T04:32:05;1.80;99.90
15217;DHT22;7711;46.634;14.318;2024-03-08T04:34:35;1.80;99.90
15217;DHT22;7711;46.634;14.318;2024-03-08T04:37:03;1.80;99.90
15217;DHT22;7711;46.634;14.318;2024-03-08T04:39:30;1.80;99.90
15217;DHT22;7711;46.634;14.318;2024-03-08T04:42:00;1.80;99.90
15217;DHT22;7711;46.634;14.318;2024-03-08T04:44:29;1.80;1.00
15217;DHT22;7711;46.634;14.318;2024-03-08T04:46:57;1.70;99.90
15217;DHT22;7711;46.634;14.318;2024-03-08T04:49:24;1.60;1.00
15217;DHT22;7711;46.634;14.318;2024-03-08T04:51:52;1.60;1.00
15217;DHT22;7711;46.634;14.318;2024-03-08T04:54:19;1.60;1.00
15217;DHT22;7711;46.634;14.318;2024-03-08T04:56:46;1.70;1.00
15217;DHT22;7711;46.634;14.318;2024-03-08T04:59:13;1.70;1.00
15217;DHT22;7711;46.634;14.318;2024-03-08T05:01:40;1.80;1.00
15217;DHT22;7711;46.634;14.318;2024-03-08T05:04:06;1.80;1.00
15217;DHT22;7711;46.634;14.318;2024-03-08T05:06:33;1.80;1.00
15217;DHT22;7711;46.634;14.318;2024-03-08T05:09:03;1.80;1.00
15217;DHT22;7711;46.634;14.318;2024-03-08T05:11:39;1.80;1.00
15217;DHT22;7711;46.634;14.318;2024-03-08T05:14:05;1.70;99.90
15217;DHT22;7711;46.634;14.318;2024-03-08T05:16:32;1.60;99.90
15217;DHT22;7711;46.634;14.318;2024-03-08T05:18:59;1.60;1.00
15217;DHT22;7711;46.634;14.318;2024-03-08T05:21:26;1.60;1.00
15217;DHT22;7711;46.634;14.318;2024-03-08T05:23:54;1.70;1.00
15217;DHT22;7711;46.634;14.318;2024-03-08T05:26:23;1.60;1.00
15217;DHT22;7711;46.634;14.318;2024-03-08T05:28:50;1.60;1.00
15217;DHT22;7711;46.634;14.318;2024-03-08T05:31:19;1.60;1.00
15217;DHT22;7711;46.634;14.318;2024-03-08T05:33:48;1.70;1.00
15217;DHT22;7711;46.634;14.318;2024-03-08T05:36:15;1.70;1.00
15217;DHT22;7711;46.634;14.318;2024-03-08T05:38:42;1.70;1.00
15217;DHT22;7711;46.634;14.318;2024-03-08T05:41:09;1.70;1.00
15217;DHT22;7711;46.634;14.318;2024-03-08T05:43:40;1.70;1.00
15217;DHT22;7711;46.634;14.318;2024-03-08T05:46:07;1.70;1.00
15217;DHT22;7711;46.634;14.318;2024-03-08T05:48:34;1.90;1.00
15217;DHT22;7711;46.634;14.318;2024-03-08T05:51:01;2.00;1.00
15217;DHT22;7711;46.634;14.318;2024-03-08T05:53:28;1.90;99.90
15217;DHT22;7711;46.634;14.318;2024-03-08T05:55:57;2.00;99.90
15217;DHT22;7711;46.634;14.318;2024-03-08T05:58:25;2.00;99.90
15217;DHT22;7711;46.634;14.318;2024-03-08T06:00:53;2.00;99.90
15217;DHT22;7711;46.634;14.318;2024-03-08T06:03:20;2.10;99.90
15217;DHT22;7711;46.634;14.318;2024-03-08T06:05:47;2.10;99.90
15217;DHT22;7711;46.634;14.318;2024-03-08T06:08:14;2.10;99.90
15217;DHT22;7711;46.634;14.318;2024-03-08T06:10:42;2.10;99.90
15217;DHT22;7711;46.634;14.318;2024-03-08T06:13:09;2.10;99.90
15217;DHT22;7711;46.634;14.318;2024-03-08T06:15:34;2.20;99.90
15217;DHT22;7711;46.634;14.318;2024-03-08T06:18:03;2.20;99.90
15217;DHT22;7711;46.634;14.318;2024-03-08T06:20:31;2.20;99.90
15217;DHT22;7711;46.634;14.318;2024-03-08T06:22:58;2.20;99.90
15217;DHT22;7711;46.634;14.318;2024-03-08T06:25:25;2.30;99.90
15217;DHT22;7711;46.634;14.318;2024-03-08T06:27:52;2.30;99.90
15217;DHT22;7711;46.634;14.318;2024-03-08T06:30:19;2.30;99.90
15217;DHT22;7711;46.634;14.318;2024-03-08T06:32:47;2.40;81.60
15217;DHT22;7711;46.634;14.318;2024-03-08T06:35:15;2.20;1.00
15217;DHT22;7711;46.634;14.318;2024-03-08T06:37:42;2.20;1.00
15217;DHT22;7711;46.634;14.318;2024-03-08T06:40:10;2.20;1.00
15217;DHT22;7711;46.634;14.318;2024-03-08T06:42:39;2.40;1.00
15217;DHT22;7711;46.634;14.318;2024-03-08T06:45:07;2.40;1.00
15217;DHT22;7711;46.634;14.318;2024-03-08T06:47:35;2.40;1.00
15217;DHT22;7711;46.634;14.318;2024-03-08T06:50:03;2.30;1.00
15217;DHT22;7711;46.634;14.318;2024-03-08T06:52:32;2.30;1.00
15217;DHT22;7711;46.634;14.318;2024-03-08T06:54:59;2.40;1.00
15217;DHT22;7711;46.634;14.318;2024-03-08T06:57:27;2.40;1.00
15217;DHT22;7711;46.634;14.318;2024-03-08T06:59:55;2.40;1.00
15217;DHT22;7711;46.634;14.318;2024-03-08T07:02:22;2.40;1.00
15217;DHT22;7711;46.634;14.318;2024-03-08T07:04:51;2.60;1.00
15217;DHT22;7711;46.634;14.318;2024-03-08T07:07:18;2.60;1.00
15217;DHT22;7711;46.634;14.318;2024-03-08T07:09:47;2.60;1.00
15217;DHT22;7711;46.634;14.318;2024-03-08T07:12:15;2.70;1.00
15217;DHT22;7711;46.634;14.318;2024-03-08T07:14:42;2.80;1.00
15217;DHT22;7711;46.634;14.318;2024-03-08T07:17:11;2.90;1.00
15217;DHT22;7711;46.634;14.318;2024-03-08T07:19:38;3.00;1.00
15217;DHT22;7711;46.634;14.318;2024-03-08T07:22:05;2.90;1.00
15217;DHT22;7711;46.634;14.318;2024-03-08T07:24:34;3.00;1.00
15217;DHT22;7711;46.634;14.318;2024-03-08T07:27:17;3.00;1.00
15217;DHT22;7711;46.634;14.318;2024-03-08T07:29:44;2.90;1.00
15217;DHT22;7711;46.634;14.318;2024-03-08T07:32:11;2.80;1.00
15217;DHT22;7711;46.634;14.318;2024-03-08T07:34:47;2.80;1.00
15217;DHT22;7711;46.634;14.318;2024-03-08T07:37:14;3.00;1.00
15217;DHT22;7711;46.634;14.318;2024-03-08T07:39:41;3.10;1.00
15217;DHT22;7711;46.634;14.318;2024-03-08T07:42:09;3.20;1.00
15217;DHT22;7711;46.634;14.318;2024-03-08T07:44:38;3.40;1.00
15217;DHT22;7711;46.634;14.318;2024-03-08T07:47:06;3.50;1.00
15217;DHT22;7711;46.634;14.318;2024-03-08T07:49:35;3.60;1.00
15217;DHT22;7711;46.634;14.318;2024-03-08T07:52:03;3.60;1.00
15217;DHT22;7711;46.634;14.318;2024-03-08T07:54:33;3.60;1.00
15217;DHT22;7711;46.634;14.318;2024-03-08T07:57:00;3.50;1.00
15217;DHT22;7711;46.634;14.318;2024-03-08T07:59:28;3.60;1.00
15217;DHT22;7711;46.634;14.318;2024-03-08T08:01:57;3.80;1.00
15217;DHT22;7711;46.634;14.318;2024-03-08T08:04:25;3.70;1.00
15217;DHT22;7711;46.634;14.318;2024-03-08T08:06:52;3.70;99.90
15217;DHT22;7711;46.634;14.318;2024-03-08T08:09:20;3.90;99.90
15217;DHT22;7711;46.634;14.318;2024-03-08T08:11:54;4.10;99.90
15217;DHT22;7711;46.634;14.318;2024-03-08T08:14:21;4.30;99.90
15217;DHT22;7711;46.634;14.318;2024-03-08T08:16:48;4.10;99.90
15217;DHT22;7711;46.634;14.318;2024-03-08T08:19:19;4.00;99.90
15217;DHT22;7711;46.634;14.318;2024-03-08T08:21:46;4.00;99.90
15217;DHT22;7711;46.634;14.318;2024-03-08T08:24:13;4.10;99.90
15217;DHT22;7711;46.634;14.318;2024-03-08T08:26:40;4.10;99.90
15217;DHT22;7711;46.634;14.318;2024-03-08T08:29:07;4.20;99.90
15217;DHT22;7711;46.634;14.318;2024-03-08T08:31:34;4.20;99.90
15217;DHT22;7711;46.634;14.318;2024-03-08T08:34:01;4.30;99.90
15217;DHT22;7711;46.634;14.318;2024-03-08T08:36:30;4.40;99.90
15217;DHT22;7711;46.634;14.318;2024-03-08T08:38:57;4.40;99.90
15217;DHT22;7711;46.634;14.318;2024-03-08T08:41:25;4.30;99.90
15217;DHT22;7711;46.634;14.318;2024-03-08T08:43:52;4.50;99.90
15217;DHT22;7711;46.634;14.318;2024-03-08T08:46:20;4.60;99.90
15217;DHT22;7711;46.634;14.318;2024-03-08T08:48:47;4.80;99.90
15217;DHT22;7711;46.634;14.318;2024-03-08T08:51:14;4.90;99.90
15217;DHT22;7711;46.634;14.318;2024-03-08T08:53:43;5.00;99.90
15217;DHT22;7711;46.634;14.318;2024-03-08T08:56:11;5.10;99.90
15217;DHT22;7711;46.634;14.318;2024-03-08T08:58:39;5.10;99.90
15217;DHT22;7711;46.634;14.318;2024-03-08T09:01:06;5.10;99.90
15217;DHT22;7711;46.634;14.318;2024-03-08T09:03:34;5.30;99.90
15217;DHT22;7711;46.634;14.318;2024-03-08T09:06:03;5.30;99.90
15217;DHT22;7711;46.634;14.318;2024-03-08T09:08:30;5.20;99.90
15217;DHT22;7711;46.634;14.318;2024-03-08T09:10:58;5.20;99.90
15217;DHT22;7711;46.634;14.318;2024-03-08T09:13:25;5.10;99.90
15217;DHT22;7711;46.634;14.318;2024-03-08T09:15:52;5.20;99.90
15217;DHT22;7711;46.634;14.318;2024-03-08T09:18:19;5.20;99.90
15217;DHT22;7711;46.634;14.318;2024-03-08T09:20:46;5.10;99.90
15217;DHT22;7711;46.634;14.318;2024-03-08T09:23:13;5.20;99.90
15217;DHT22;7711;46.634;14.318;2024-03-08T09:25:40;5.40;99.90
15217;DHT22;7711;46.634;14.318;2024-03-08T09:28:09;5.30;99.90
15217;DHT22;7711;46.634;14.318;2024-03-08T09:30:37;5.40;99.90
15217;DHT22;7711;46.634;14.318;2024-03-08T09:33:04;5.50;99.90
15217;DHT22;7711;46.634;14.318;2024-03-08T09:35:31;5.40;99.90
15217;DHT22;7711;46.634;14.318;2024-03-08T09:37:58;5.40;99.90
15217;DHT22;7711;46.634;14.318;2024-03-08T09:40:25;5.60;99.90
15217;DHT22;7711;46.634;14.318;2024-03-08T09:42:53;5.70;99.90
15217;DHT22;7711;46.634;14.318;2024-03-08T09:45:22;5.80;99.90
15217;DHT22;7711;46.634;14.318;2024-03-08T09:47:50;5.90;99.90
15217;DHT22;7711;46.634;14.318;2024-03-08T09:50:18;5.80;99.90
15217;DHT22;7711;46.634;14.318;2024-03-08T09:52:47;5.90;99.90
15217;DHT22;7711;46.634;14.318;2024-03-08T09:55:16;5.80;99.90
15217;DHT22;7711;46.634;14.318;2024-03-08T09:57:48;6.10;99.90
15217;DHT22;7711;46.634;14.318;2024-03-08T10:00:30;6.30;99.90
15217;DHT22;7711;46.634;14.318;2024-03-08T10:03:01;6.50;99.90
15217;DHT22;7711;46.634;14.318;2024-03-08T10:05:28;6.50;99.90
15217;DHT22;7711;46.634;14.318;2024-03-08T10:07:55;6.70;99.90
15217;DHT22;7711;46.634;14.318;2024-03-08T10:10:22;6.70;99.90
15217;DHT22;7711;46.634;14.318;2024-03-08T10:12:49;6.70;99.90
15217;DHT22;7711;46.634;14.318;2024-03-08T10:15:16;6.80;99.90
15217;DHT22;7711;46.634;14.318;2024-03-08T10:17:44;6.70;99.90
15217;DHT22;7711;46.634;14.318;2024-03-08T10:20:15;6.80;99.90
15217;DHT22;7711;46.634;14.318;2024-03-08T10:22:42;6.90;99.90
15217;DHT22;7711;46.634;14.318;2024-03-08T10:25:10;6.80;99.90
15217;DHT22;7711;46.634;14.318;2024-03-08T10:27:38;6.90;99.90
15217;DHT22;7711;46.634;14.318;2024-03-08T10:30:08;7.00;99.90
15217;DHT22;7711;46.634;14.318;2024-03-08T10:32:38;7.20;99.90
15217;DHT22;7711;46.634;14.318;2024-03-08T10:35:08;7.10;99.90
15217;DHT22;7711;46.634;14.318;2024-03-08T10:37:38;7.30;99.90
15217;DHT22;7711;46.634;14.318;2024-03-08T10:40:10;7.10;99.90
15217;DHT22;7711;46.634;14.318;2024-03-08T10:42:49;7.20;99.90
15217;DHT22;7711;46.634;14.318;2024-03-08T10:45:34;6.80;99.90
15217;DHT22;7711;46.634;14.318;2024-03-08T10:48:12;6.80;99.90
15217;DHT22;7711;46.634;14.318;2024-03-08T10:50:44;6.80;99.90
15217;DHT22;7711;46.634;14.318;2024-03-08T10:53:13;6.70;99.90
15217;DHT22;7711;46.634;14.318;2024-03-08T10:55:41;6.60;99.90
15217;DHT22;7711;46.634;14.318;2024-03-08T10:58:09;6.70;99.90
15217;DHT22;7711;46.634;14.318;2024-03-08T11:00:36;6.80;99.90
15217;DHT22;7711;46.634;14.318;2024-03-08T11:03:03;6.80;99.90
15217;DHT22;7711;46.634;14.318;2024-03-08T11:05:37;6.90;99.90
15217;DHT22;7711;46.634;14.318;2024-03-08T11:08:17;6.80;99.90
15217;DHT22;7711;46.634;14.318;2024-03-08T11:10:48;6.60;99.90
15217;DHT22;7711;46.634;14.318;2024-03-08T11:13:33;6.60;99.90
15217;DHT22;7711;46.634;14.318;2024-03-08T11:16:00;6.30;99.90
15217;DHT22;7711;46.634;14.318;2024-03-08T11:18:32;6.30;99.90
15217;DHT22;7711;46.634;14.318;2024-03-08T11:21:02;6.30;99.90
15217;DHT22;7711;46.634;14.318;2024-03-08T11:23:33;6.40;99.90
15217;DHT22;7711;46.634;14.318;2024-03-08T11:26:01;6.60;99.90
15217;DHT22;7711;46.634;14.318;2024-03-08T11:28:33;6.60;99.90
15217;DHT22;7711;46.634;14.318;2024-03-08T11:31:24;6.60;99.90
15217;DHT22;7711;46.634;14.318;2024-03-08T11:33:52;6.60;99.90
15217;DHT22;7711;46.634;14.318;2024-03-08T11:36:21;6.80;99.90
15217;DHT22;7711;46.634;14.318;2024-03-08T11:38:50;7.10;99.90
15217;DHT22;7711;46.634;14.318;2024-03-08T11:41:19;6.40;99.90
15217;DHT22;7711;46.634;14.318;2024-03-08T11:43:46;6.70;99.90
15217;DHT22;7711;46.634;14.318;2024-03-08T11:46:14;6.90;99.90
15217;DHT22;7711;46.634;14.318;2024-03-08T11:48:42;6.80;99.90
15217;DHT22;7711;46.634;14.318;2024-03-08T11:51:11;6.30;99.90
15217;DHT22;7711;46.634;14.318;2024-03-08T11:53:39;6.40;99.90
15217;DHT22;7711;46.634;14.318;2024-03-08T11:56:09;6.40;99.90
15217;DHT22;7711;46.634;14.318;2024-03-08T11:58:37;6.20;99.90
15217;DHT22;7711;46.634;14.318;2024-03-08T12:01:04;6.10;99.90
15217;DHT22;7711;46.634;14.318;2024-03-08T12:03:32;6.00;99.90
15217;DHT22;7711;46.634;14.318;2024-03-08T12:05:59;6.20;99.90
15217;DHT22;7711;46.634;14.318;2024-03-08T12:08:27;6.20;99.90
15217;DHT22;7711;46.634;14.318;2024-03-08T12:10:55;6.10;99.90
15217;DHT22;7711;46.634;14.318;2024-03-08T12:13:26;6.10;99.90
15217;DHT22;7711;46.634;14.318;2024-03-08T12:15:56;6.00;99.90
15217;DHT22;7711;46.634;14.318;2024-03-08T12:18:24;6.10;99.90
15217;DHT22;7711;46.634;14.318;2024-03-08T12:20:52;6.00;99.90
15217;DHT22;7711;46.634;14.318;2024-03-08T12:23:31;6.20;99.90
15217;DHT22;7711;46.634;14.318;2024-03-08T12:26:09;6.20;99.90
15217;DHT22;7711;46.634;14.318;2024-03-08T12:28:40;6.20;99.90
15217;DHT22;7711;46.634;14.318;2024-03-08T12:31:07;5.90;99.90
15217;DHT22;7711;46.634;14.318;2024-03-08T12:33:37;5.80;99.90
15217;DHT22;7711;46.634;14.318;2024-03-08T12:36:04;6.00;99.90
15217;DHT22;7711;46.634;14.318;2024-03-08T12:38:33;6.00;99.90
15217;DHT22;7711;46.634;14.318;2024-03-08T12:41:01;6.20;99.90
15217;DHT22;7711;46.634;14.318;2024-03-08T12:43:28;6.00;99.90
15217;DHT22;7711;46.634;14.318;2024-03-08T12:45:58;5.50;99.90
15217;DHT22;7711;46.634;14.318;2024-03-08T12:48:25;5.30;99.90
15217;DHT22;7711;46.634;14.318;2024-03-08T12:50:52;5.30;99.90
15217;DHT22;7711;46.634;14.318;2024-03-08T12:53:20;5.30;99.90
15217;DHT22;7711;46.634;14.318;2024-03-08T12:55:48;5.40;99.90
15217;DHT22;7711;46.634;14.318;2024-03-08T12:58:15;5.40;99.90
15217;DHT22;7711;46.634;14.318;2024-03-08T13:00:43;5.10;99.90
15217;DHT22;7711;46.634;14.318;2024-03-08T13:03:11;5.10;99.90
15217;DHT22;7711;46.634;14.318;2024-03-08T13:05:38;5.00;99.90
15217;DHT22;7711;46.634;14.318;2024-03-08T13:08:08;5.00;99.90
15217;DHT22;7711;46.634;14.318;2024-03-08T13:10:38;5.10;99.90
15217;DHT22;7711;46.634;14.318;2024-03-08T13:13:05;5.20;99.90
15217;DHT22;7711;46.634;14.318;2024-03-08T13:15:35;5.10;99.90
15217;DHT22;7711;46.634;14.318;2024-03-08T13:18:02;5.10;99.90
15217;DHT22;7711;46.634;14.318;2024-03-08T13:20:32;5.10;99.90
15217;DHT22;7711;46.634;14.318;2024-03-08T13:23:02;5.00;99.90
15217;DHT22;7711;46.634;14.318;2024-03-08T13:25:30;5.10;99.90
15217;DHT22;7711;46.634;14.318;2024-03-08T13:27:57;4.90;99.90
15217;DHT22;7711;46.634;14.318;2024-03-08T13:30:26;4.80;99.90
15217;DHT22;7711;46.634;14.318;2024-03-08T13:32:53;4.80;99.90
15217;DHT22;7711;46.634;14.318;2024-03-08T13:35:20;4.70;99.90
15217;DHT22;7711;46.634;14.318;2024-03-08T13:37:51;4.80;99.90
15217;DHT22;7711;46.634;14.318;2024-03-08T13:40:18;4.90;99.90
15217;DHT22;7711;46.634;14.318;2024-03-08T13:42:45;5.00;99.90
15217;DHT22;7711;46.634;14.318;2024-03-08T13:45:15;4.80;99.90
15217;DHT22;7711;46.634;14.318;2024-03-08T13:47:46;4.90;99.90
15217;DHT22;7711;46.634;14.318;2024-03-08T13:50:13;4.80;99.90
15217;DHT22;7711;46.634;14.318;2024-03-08T13:52:47;4.90;99.90
15217;DHT22;7711;46.634;14.318;2024-03-08T13:55:18;5.10;99.90
15217;DHT22;7711;46.634;14.318;2024-03-08T13:57:45;5.10;99.90
15217;DHT22;7711;46.634;14.318;2024-03-08T14:00:14;5.00;99.90
15217;DHT22;7711;46.634;14.318;2024-03-08T14:02:42;5.10;99.90
15217;DHT22;7711;46.634;14.318;2024-03-08T14:05:09;5.00;99.90
15217;DHT22;7711;46.634;14.318;2024-03-08T14:07:37;5.00;99.90
15217;DHT22;7711;46.634;14.318;2024-03-08T14:10:05;5.00;99.90
15217;DHT22;7711;46.634;14.318;2024-03-08T14:12:36;5.00;99.90
15217;DHT22;7711;46.634;14.318;2024-03-08T14:15:05;4.90;99.90
15217;DHT22;7711;46.634;14.318;2024-03-08T14:17:32;4.70;99.90
15217;DHT22;7711;46.634;14.318;2024-03-08T14:20:00;4.90;99.90
15217;DHT22;7711;46.634;14.318;2024-03-08T14:22:27;4.80;99.90
15217;DHT22;7711;46.634;14.318;2024-03-08T14:24:57;4.50;99.90
15217;DHT22;7711;46.634;14.318;2024-03-08T14:27:24;4.50;99.90
15217;DHT22;7711;46.634;14.318;2024-03-08T14:29:55;4.60;99.90
15217;DHT22;7711;46.634;14.318;2024-03-08T14:32:23;4.70;99.90
15217;DHT22;7711;46.634;14.318;2024-03-08T14:34:50;4.60;99.90
15217;DHT22;7711;46.634;14.318;2024-03-08T14:37:17;4.60;99.90
15217;DHT22;7711;46.634;14.318;2024-03-08T14:39:48;4.60;99.90
15217;DHT22;7711;46.634;14.318;2024-03-08T14:42:17;4.60;99.90
15217;DHT22;7711;46.634;14.318;2024-03-08T14:44:45;4.60;99.90
15217;DHT22;7711;46.634;14.318;2024-03-08T14:47:19;4.60;99.90
15217;DHT22;7711;46.634;14.318;2024-03-08T14:49:48;4.70;99.90
15217;DHT22;7711;46.634;14.318;2024-03-08T14:52:15;4.90;99.90
15217;DHT22;7711;46.634;14.318;2024-03-08T14:54:53;4.90;99.90
15217;DHT22;7711;46.634;14.318;2024-03-08T14:57:21;4.90;99.90
15217;DHT22;7711;46.634;14.318;2024-03-08T14:59:53;4.80;99.90
15217;DHT22;7711;46.634;14.318;2024-03-08T15:02:21;4.70;99.90
15217;DHT22;7711;46.634;14.318;2024-03-08T15:04:48;4.60;99.90
15217;DHT22;7711;46.634;14.318;2024-03-08T15:07:23;4.60;99.90
15217;DHT22;7711;46.634;14.318;2024-03-08T15:09:51;4.50;99.90
15217;DHT22;7711;46.634;14.318;2024-03-08T15:12:18;4.40;99.90
15217;DHT22;7711;46.634;14.318;2024-03-08T15:14:46;4.40;99.90
15217;DHT22;7711;46.634;14.318;2024-03-08T15:17:14;4.40;99.90
15217;DHT22;7711;46.634;14.318;2024-03-08T15:19:48;4.40;99.90
15217;DHT22;7711;46.634;14.318;2024-03-08T15:22:15;4.40;99.90
15217;DHT22;7711;46.634;14.318;2024-03-08T15:24:43;4.30;99.90
15217;DHT22;7711;46.634;14.318;2024-03-08T15:27:11;4.30;99.90
15217;DHT22;7711;46.634;14.318;2024-03-08T15:29:39;4.30;99.90
15217;DHT22;7711;46.634;14.318;2024-03-08T15:32:06;4.30;99.90
15217;DHT22;7711;46.634;14.318;2024-03-08T15:34:35;4.20;1.00
15217;DHT22;7711;46.634;14.318;2024-03-08T15:37:05;4.20;99.90
15217;DHT22;7711;46.634;14.318;2024-03-08T15:39:32;4.20;99.90
15217;DHT22;7711;46.634;14.318;2024-03-08T15:42:00;4.20;99.90
15217;DHT22;7711;46.634;14.318;2024-03-08T15:44:27;4.10;99.90
15217;DHT22;7711;46.634;14.318;2024-03-08T15:46:55;4.20;99.90
15217;DHT22;7711;46.634;14.318;2024-03-08T15:49:22;4.20;99.90
15217;DHT22;7711;46.634;14.318;2024-03-08T15:51:50;4.20;99.90
15217;DHT22;7711;46.634;14.318;2024-03-08T15:54:19;4.20;1.00
15217;DHT22;7711;46.634;14.318;2024-03-08T15:56:47;4.20;1.00